Time;durP1;ratioP1;P1;durP2;ratioP2;P2;SDS_P1;SDS_P2;PMS_P1;PMS_P2;Temp;Humidity;BMP_temperature;BMP_pressure;BME280_temperature;BME280_humidity;BME280_pressure;Samples;Min_cycle;Max_cycle;Signal;HPM_P1;HPM_P2
2022/07/26 00:02:03;;;;;;;15.37;11.87;;;15.00;86.80;;;;;;5009164;28;20620;-76
2022/07/26 00:04:31;;;;;;;18.13;13.83;;;15.20;87.20;;;;;;5016401;28;20189;-78
2022/07/26 00:06:59;;;;;;;17.63;13.70;;;15.30;87.20;;;;;;5014351;28;20181;-75
2022/07/26 00:09:26;;;;;;;15.47;13.17;;;15.30;86.90;;;;;;5014425;28;20192;-75
2022/07/26 00:11:54;;;;;;;17.07;12.57;;;15.30;86.80;;;;;;5013933;28;20275;-75
2022/07/26 00:14:21;;;;;;;15.73;10.97;;;15.40;87.00;;;;;;5015610;28;20585;-80
2022/07/26 00:16:49;;;;;;;12.83;9.63;;;15.50;85.90;;;;;;5015526;28;20595;-76
2022/07/26 00:19:17;;;;;;;8.50;7.50;;;15.60;85.60;;;;;;5014987;28;20292;-78
2022/07/26 00:21:44;;;;;;;12.27;8.00;;;15.70;85.20;;;;;;5015634;28;20191;-83
2022/07/26 00:24:12;;;;;;;9.57;7.10;;;15.80;84.70;;;;;;5015883;28;20189;-84
2022/07/26 00:26:39;;;;;;;10.77;7.93;;;15.80;84.40;;;;;;5015928;28;20236;-80
2022/07/26 00:29:07;;;;;;;9.77;7.87;;;15.90;84.50;;;;;;5015950;28;20185;-81
2022/07/26 00:31:34;;;;;;;8.37;7.03;;;16.00;83.90;;;;;;5008762;28;20242;-76
2022/07/26 00:34:01;;;;;;;9.87;6.80;;;16.00;83.90;;;;;;4995691;28;20181;-80
2022/07/26 00:36:29;;;;;;;11.20;6.80;;;15.90;83.70;;;;;;4996355;28;20179;-78
2022/07/26 00:38:56;;;;;;;8.13;6.63;;;16.00;83.50;;;;;;4996118;28;20300;-78
2022/07/26 00:41:24;;;;;;;8.20;5.83;;;16.20;83.50;;;;;;4995705;28;20202;-77
2022/07/26 00:43:59;;;;;;;14.23;5.00;;;16.30;83.40;;;;;;4995146;28;20176;-78
2022/07/26 00:46:26;;;;;;;11.53;6.40;;;16.50;82.80;;;;;;4995959;28;20629;-77
2022/07/26 00:48:54;;;;;;;6.90;5.40;;;16.50;82.40;;;;;;4995427;28;20250;-76
2022/07/26 00:51:22;;;;;;;7.63;5.93;;;16.50;82.60;;;;;;4995823;28;20178;-78
2022/07/26 00:53:49;;;;;;;9.53;4.97;;;16.30;81.20;;;;;;4995354;28;20519;-76
2022/07/26 00:56:17;;;;;;;7.30;4.33;;;16.20;81.50;;;;;;4995571;28;20186;-78
2022/07/26 00:58:45;;;;;;;6.30;3.87;;;16.30;80.80;;;;;;4994873;28;20535;-81
2022/07/26 01:01:12;;;;;;;6.20;3.93;;;16.50;79.70;;;;;;4990273;28;20190;-74
2022/07/26 01:03:40;;;;;;;6.23;3.30;;;16.50;80.10;;;;;;4989666;28;20183;-80
2022/07/26 01:06:08;;;;;;;5.37;2.80;;;16.80;80.10;;;;;;4980224;28;20188;-77
2022/07/26 01:08:35;;;;;;;3.43;2.47;;;17.00;79.40;;;;;;4993609;28;20186;-75
2022/07/26 01:11:02;;;;;;;3.90;2.77;;;17.20;78.60;;;;;;4991438;28;20643;-77
2022/07/26 01:13:30;;;;;;;4.33;2.63;;;17.30;77.70;;;;;;4992375;28;20315;-79
2022/07/26 01:15:57;;;;;;;4.93;2.53;;;17.40;77.40;;;;;;4992982;28;20181;-77
2022/07/26 01:18:24;;;;;;;3.77;2.40;;;17.40;76.60;;;;;;4992527;28;20502;-76
2022/07/26 01:20:53;;;;;;;4.00;2.80;;;17.70;76.70;;;;;;4988944;28;20188;-76
2022/07/26 01:23:20;;;;;;;3.43;2.17;;;17.70;76.30;;;;;;4988376;28;20176;-77
2022/07/26 01:25:48;;;;;;;8.00;2.37;;;17.50;75.50;;;;;;4991433;28;20196;-79
2022/07/26 01:28:15;;;;;;;3.47;2.00;;;17.60;75.10;;;;;;4988813;28;20180;-75
2022/07/26 01:30:43;;;;;;;2.33;1.83;;;17.70;74.60;;;;;;4994939;28;20189;-77
2022/07/26 01:33:10;;;;;;;2.53;1.90;;;18.00;72.60;;;;;;5010880;28;20232;-76
2022/07/26 01:35:38;;;;;;;2.37;1.80;;;18.30;71.80;;;;;;5013904;28;20196;-78
2022/07/26 01:38:05;;;;;;;3.20;2.00;;;18.50;69.70;;;;;;5014145;28;20273;-77
2022/07/26 01:40:33;;;;;;;5.27;1.87;;;18.50;68.10;;;;;;5013201;28;20683;-75
2022/07/26 01:43:00;;;;;;;3.40;2.00;;;18.60;69.30;;;;;;5013753;28;20213;-76
2022/07/26 01:45:27;;;;;;;3.30;1.83;;;18.70;67.90;;;;;;5013778;28;20250;-79
2022/07/26 01:47:55;;;;;;;1.97;1.73;;;18.80;66.90;;;;;;5013894;28;20184;-83
2022/07/26 01:50:22;;;;;;;2.93;1.57;;;18.80;67.00;;;;;;5012971;28;20192;-76
2022/07/26 01:52:50;;;;;;;2.30;1.93;;;18.70;64.40;;;;;;5012917;28;20198;-79
2022/07/26 01:55:17;;;;;;;2.47;1.63;;;18.80;65.00;;;;;;5001561;28;20212;-76
2022/07/26 01:57:47;;;;;;;1.60;1.50;;;18.80;64.10;;;;;;5005472;28;20628;-74
2022/07/26 02:00:15;;;;;;;3.40;1.67;;;18.80;65.20;;;;;;5012930;28;20244;-77
2022/07/26 02:02:46;;;;;;;3.03;1.90;;;19.00;64.00;;;;;;5008921;28;20553;-75
2022/07/26 02:05:13;;;;;;;4.57;1.90;;;19.10;63.70;;;;;;5013489;28;20623;-76
2022/07/26 02:07:43;;;;;;;2.00;1.40;;;19.10;63.30;;;;;;5013254;28;20212;-76
2022/07/26 02:10:13;;;;;;;1.60;1.50;;;19.20;63.20;;;;;;5011153;28;20185;-74
2022/07/26 02:12:41;;;;;;;1.30;1.20;;;19.20;63.70;;;;;;5007826;28;20188;-75
2022/07/26 02:15:10;;;;;;;2.83;1.13;;;19.40;62.60;;;;;;5012245;28;20186;-74
2022/07/26 02:17:37;;;;;;;1.20;0.87;;;19.20;60.00;;;;;;5012869;28;20239;-75
2022/07/26 02:20:06;;;;;;;4.17;1.30;;;19.10;56.50;;;;;;5012510;28;20225;-77
2022/07/26 02:22:33;;;;;;;1.57;1.00;;;19.30;57.60;;;;;;5013960;28;20236;-75
2022/07/26 02:25:00;;;;;;;1.30;1.00;;;19.00;57.40;;;;;;5012608;28;20193;-72
2022/07/26 02:27:28;;;;;;;1.10;0.80;;;18.90;57.90;;;;;;5013618;28;20184;-76
2022/07/26 02:29:55;;;;;;;1.30;0.73;;;19.30;52.40;;;;;;5012849;28;20190;-75
2022/07/26 02:32:22;;;;;;;0.97;0.50;;;19.50;50.10;;;;;;5013964;28;20411;-79
2022/07/26 02:34:50;;;;;;;1.00;0.90;;;19.50;51.50;;;;;;5014154;28;20180;-78
2022/07/26 02:37:17;;;;;;;0.60;0.60;;;19.20;50.90;;;;;;5006519;28;20195;-80
2022/07/26 02:39:45;;;;;;;0.73;0.67;;;19.30;51.40;;;;;;4989647;28;20259;-76
2022/07/26 02:42:12;;;;;;;2.20;0.70;;;19.50;50.10;;;;;;4990871;28;20263;-75
2022/07/26 02:44:42;;;;;;;6.00;0.80;;;19.80;50.30;;;;;;4994253;28;20536;-77
2022/07/26 02:47:09;;;;;;;1.57;0.70;;;20.00;49.00;;;;;;4994163;28;20181;-78
2022/07/26 02:49:37;;;;;;;1.47;0.60;;;20.20;47.60;;;;;;5005261;28;20236;-77
2022/07/26 02:52:04;;;;;;;2.10;0.80;;;20.00;47.40;;;;;;4995227;28;20225;-75
2022/07/26 02:54:32;;;;;;;0.60;0.50;;;20.00;48.00;;;;;;5004915;28;20652;-78
2022/07/26 02:56:59;;;;;;;1.03;0.60;;;20.20;47.50;;;;;;5011234;28;20727;-79
2022/07/26 02:59:27;;;;;;;0.73;0.63;;;20.00;47.30;;;;;;5004242;28;20758;-75
2022/07/26 03:01:54;;;;;;;0.60;0.53;;;20.30;47.90;;;;;;5009551;28;20181;-81
2022/07/26 03:04:21;;;;;;;0.70;0.50;;;20.60;46.80;;;;;;5013044;28;20181;-76
2022/07/26 03:06:49;;;;;;;0.83;0.57;;;20.60;47.80;;;;;;5012627;28;20556;-77
2022/07/26 03:09:17;;;;;;;1.50;0.70;;;20.00;49.00;;;;;;5012514;28;20196;-75
2022/07/26 03:11:44;;;;;;;1.20;0.70;;;19.60;49.10;;;;;;5012577;28;20199;-78
2022/07/26 03:14:12;;;;;;;0.63;0.63;;;19.20;50.60;;;;;;5008912;28;20247;-74
2022/07/26 03:16:39;;;;;;;1.80;0.70;;;19.00;51.30;;;;;;5008951;28;20193;-75
2022/07/26 03:19:06;;;;;;;0.93;0.70;;;18.80;50.10;;;;;;5012223;28;20452;-76
2022/07/26 03:21:34;;;;;;;1.90;0.70;;;18.60;47.40;;;;;;5012835;28;20185;-73
2022/07/26 03:24:01;;;;;;;1.17;0.60;;;18.40;48.40;;;;;;5011163;28;20193;-78
2022/07/26 03:26:28;;;;;;;0.63;0.63;;;18.40;49.70;;;;;;5010122;28;20196;-79
2022/07/26 03:28:56;;;;;;;1.40;0.80;;;18.40;50.50;;;;;;5009822;28;20185;-76
2022/07/26 03:31:24;;;;;;;1.60;0.70;;;18.70;50.00;;;;;;5007865;28;20209;-75
2022/07/26 03:33:51;;;;;;;1.10;0.80;;;19.00;48.00;;;;;;5005705;28;20655;-72
2022/07/26 03:36:19;;;;;;;1.70;0.80;;;19.00;46.00;;;;;;5010372;28;20288;-73
2022/07/26 03:38:46;;;;;;;1.70;0.70;;;19.20;44.30;;;;;;5004569;28;20205;-80
2022/07/26 03:41:14;;;;;;;1.50;0.70;;;19.30;43.30;;;;;;5000139;28;20261;-77
2022/07/26 03:43:41;;;;;;;1.20;0.70;;;19.60;42.70;;;;;;4997210;28;20189;-73
2022/07/26 03:46:08;;;;;;;0.70;0.60;;;19.20;44.50;;;;;;5010950;28;20232;-79
2022/07/26 03:48:36;;;;;;;0.97;0.60;;;19.10;44.40;;;;;;5002051;28;20646;-75
2022/07/26 03:51:04;;;;;;;3.67;0.93;;;19.80;42.70;;;;;;5005934;28;20178;-75
2022/07/26 03:53:31;;;;;;;1.57;0.77;;;20.30;40.50;;;;;;5009064;28;20646;-77
2022/07/26 03:58:44;;;;;;;0.83;0.60;;;20.30;39.40;;;;;;4995433;28;20266;-76
2022/07/26 04:01:11;;;;;;;1.30;0.70;;;19.50;40.50;;;;;;5005878;28;20251;-79
2022/07/26 04:03:38;;;;;;;0.87;0.60;;;19.10;41.70;;;;;;5003352;28;20181;-79
2022/07/26 04:06:06;;;;;;;0.80;0.50;;;18.80;42.40;;;;;;5007181;28;20288;-76
2022/07/26 04:08:33;;;;;;;1.90;0.60;;;18.80;43.30;;;;;;5001995;28;20628;-76
2022/07/26 04:11:01;;;;;;;3.47;0.80;;;18.50;43.30;;;;;;5011837;28;20248;-77
2022/07/26 04:13:28;;;;;;;0.70;0.60;;;18.30;44.00;;;;;;4994788;28;20711;-78
2022/07/26 04:15:56;;;;;;;1.47;0.80;;;18.30;45.20;;;;;;5005913;28;20584;-72
2022/07/26 04:18:23;;;;;;;0.83;0.63;;;18.20;45.40;;;;;;5009886;28;20191;-79
2022/07/26 04:20:51;;;;;;;1.17;0.60;;;18.10;45.90;;;;;;5003663;28;20235;-77
2022/07/26 04:23:18;;;;;;;1.43;0.80;;;18.10;45.80;;;;;;5011884;28;20168;-73
2022/07/26 04:25:46;;;;;;;0.70;0.70;;;18.00;45.50;;;;;;5003763;28;20271;-72
2022/07/26 04:28:13;;;;;;;1.53;0.90;;;17.90;47.10;;;;;;5011362;28;20233;-73
2022/07/26 04:30:41;;;;;;;2.20;0.80;;;17.70;48.00;;;;;;5012048;28;20182;-80
2022/07/26 04:33:08;;;;;;;2.07;0.70;;;17.30;46.90;;;;;;5029608;28;20227;-78
2022/07/26 04:35:52;;;;;;;2.00;0.70;;;17.30;45.90;;;;;;4984253;28;20667;-79
2022/07/26 04:38:20;;;;;;;0.70;0.70;;;17.00;45.40;;;;;;5012065;28;20184;-75
2022/07/26 04:40:48;;;;;;;0.83;0.70;;;16.90;45.50;;;;;;5006553;28;20655;-76
2022/07/26 04:43:16;;;;;;;2.43;0.80;;;16.80;46.50;;;;;;5016307;28;20190;-75
2022/07/26 04:45:45;;;;;;;2.43;0.80;;;16.80;47.70;;;;;;5034909;28;20198;-71
2022/07/26 04:48:13;;;;;;;2.20;0.70;;;16.80;48.30;;;;;;5016619;28;20523;-75
2022/07/26 04:50:43;;;;;;;1.13;0.60;;;16.60;45.30;;;;;;5018518;28;20584;-76
2022/07/26 04:53:10;;;;;;;0.83;0.60;;;16.40;45.00;;;;;;5012675;28;20194;-75
2022/07/26 04:55:38;;;;;;;0.83;0.60;;;16.30;45.10;;;;;;5010340;28;20239;-73
2022/07/26 04:58:06;;;;;;;0.73;0.50;;;16.20;44.20;;;;;;5020610;28;20516;-74
2022/07/26 05:00:34;;;;;;;0.60;0.60;;;16.10;44.60;;;;;;5013407;28;20304;-76
2022/07/26 05:03:02;;;;;;;1.77;0.67;;;16.00;44.70;;;;;;5025154;28;20625;-77
2022/07/26 05:05:32;;;;;;;1.40;0.60;;;15.90;44.70;;;;;;5013810;28;20185;-73
2022/07/26 05:08:02;;;;;;;0.97;0.60;;;15.90;45.20;;;;;;5013382;28;20207;-78
2022/07/26 05:10:35;;;;;;;1.23;0.87;;;15.90;45.40;;;;;;5011684;28;20232;-74
2022/07/26 05:13:06;;;;;;;0.83;0.60;;;15.90;46.00;;;;;;5012876;28;20667;-75
2022/07/26 05:15:37;;;;;;;1.73;0.90;;;15.80;44.10;;;;;;5012780;28;20182;-78
2022/07/26 05:18:07;;;;;;;1.10;0.70;;;15.80;44.00;;;;;;5013485;28;20209;-75
2022/07/26 05:20:35;;;;;;;0.87;0.70;;;15.80;43.70;;;;;;5011298;28;20548;-75
2022/07/26 05:23:03;;;;;;;1.27;0.70;;;15.70;44.50;;;;;;5013057;28;20177;-77
2022/07/26 05:25:30;;;;;;;1.00;0.60;;;15.80;44.30;;;;;;5007288;28;20271;-76
2022/07/26 05:27:58;;;;;;;1.30;0.70;;;15.70;44.50;;;;;;5012346;28;20272;-77
2022/07/26 05:30:25;;;;;;;2.27;0.60;;;15.70;44.90;;;;;;5010807;28;20188;-74
2022/07/26 05:32:53;;;;;;;0.80;0.60;;;16.00;45.30;;;;;;5011359;28;20271;-77
2022/07/26 05:35:20;;;;;;;1.57;0.77;;;16.80;43.20;;;;;;5006705;28;20197;-79
2022/07/26 05:37:48;;;;;;;0.93;0.70;;;16.50;44.30;;;;;;5009708;28;20185;-78
2022/07/26 05:40:15;;;;;;;1.43;0.80;;;16.90;43.50;;;;;;5011848;28;20226;-78
2022/07/26 05:42:43;;;;;;;0.70;0.70;;;17.70;42.30;;;;;;5012933;28;20584;-76
2022/07/26 05:45:10;;;;;;;2.90;0.70;;;18.30;40.90;;;;;;5013073;28;20185;-77
2022/07/26 05:47:38;;;;;;;0.70;0.70;;;18.10;40.00;;;;;;4993963;28;20192;-77
2022/07/26 05:50:07;;;;;;;1.03;0.60;;;16.90;42.00;;;;;;5012400;28;20240;-75
2022/07/26 05:52:34;;;;;;;2.17;0.70;;;16.30;43.00;;;;;;5013784;28;20193;-74
2022/07/26 05:55:01;;;;;;;0.70;0.70;;;16.30;43.60;;;;;;5007739;28;20185;-79
2022/07/26 05:57:29;;;;;;;1.17;0.67;;;16.10;44.60;;;;;;5010690;28;20182;-79
2022/07/26 05:59:56;;;;;;;0.87;0.70;;;15.90;45.40;;;;;;5013094;28;20271;-77
2022/07/26 06:02:24;;;;;;;0.70;0.70;;;15.70;45.50;;;;;;5013148;28;20193;-76
2022/07/26 06:04:51;;;;;;;1.03;0.63;;;15.50;45.50;;;;;;5015915;28;20181;-78
2022/07/26 06:07:18;;;;;;;1.00;0.70;;;15.50;44.60;;;;;;5010795;28;20187;-78
2022/07/26 06:09:46;;;;;;;0.60;0.60;;;15.50;44.70;;;;;;5011845;28;20535;-74
2022/07/26 06:12:13;;;;;;;1.23;0.80;;;15.50;44.90;;;;;;5010882;28;20255;-76
2022/07/26 06:14:40;;;;;;;0.80;0.70;;;15.50;45.20;;;;;;5009977;28;20530;-77
2022/07/26 06:17:08;;;;;;;0.87;0.70;;;15.70;45.00;;;;;;4997159;28;20648;-84
2022/07/26 06:19:35;;;;;;;0.87;0.70;;;15.70;45.30;;;;;;5011020;28;20283;-71
2022/07/26 06:22:03;;;;;;;1.20;0.70;;;15.50;45.50;;;;;;5012247;28;20181;-75
2022/07/26 06:24:31;;;;;;;0.77;0.70;;;15.30;46.10;;;;;;5012009;28;20188;-72
2022/07/26 06:26:58;;;;;;;2.67;0.80;;;15.20;47.30;;;;;;5010005;28;20198;-74
2022/07/26 06:29:26;;;;;;;0.70;0.70;;;14.90;47.80;;;;;;4994189;28;20184;-79
2022/07/26 06:31:53;;;;;;;1.63;0.80;;;14.80;48.10;;;;;;5012370;28;20256;-78
2022/07/26 06:34:21;;;;;;;1.40;0.80;;;14.70;46.40;;;;;;5010353;28;20230;-75
2022/07/26 06:36:48;;;;;;;0.83;0.70;;;14.80;45.40;;;;;;5004621;28;20224;-75
2022/07/26 06:39:15;;;;;;;0.90;0.80;;;14.70;45.70;;;;;;5008857;28;20249;-73
2022/07/26 06:41:43;;;;;;;1.23;1.00;;;14.60;46.60;;;;;;5011673;28;20235;-77
2022/07/26 06:44:10;;;;;;;1.57;0.80;;;14.50;47.90;;;;;;5011841;28;20211;-77
2022/07/26 06:46:37;;;;;;;1.30;0.90;;;14.30;48.70;;;;;;5012549;28;20242;-77
2022/07/26 06:49:05;;;;;;;2.80;0.87;;;14.30;49.70;;;;;;5008372;28;20181;-74
2022/07/26 06:51:32;;;;;;;1.50;0.83;;;14.20;49.60;;;;;;5010055;28;20214;-74
2022/07/26 06:54:00;;;;;;;0.80;0.80;;;14.20;49.30;;;;;;5013658;28;20185;-79
2022/07/26 06:56:27;;;;;;;1.07;0.90;;;14.10;49.80;;;;;;5010854;28;20276;-81
2022/07/26 06:58:55;;;;;;;0.93;0.80;;;14.00;49.70;;;;;;5010192;28;20203;-73
2022/07/26 07:01:22;;;;;;;2.43;1.03;;;13.90;49.20;;;;;;5008440;28;20204;-75
2022/07/26 07:03:49;;;;;;;1.03;0.87;;;13.80;48.80;;;;;;5012555;28;20239;-73
2022/07/26 07:06:17;;;;;;;2.23;1.00;;;13.80;49.50;;;;;;5005878;28;20221;-73
2022/07/26 07:08:47;;;;;;;1.63;0.87;;;13.60;50.80;;;;;;5013192;28;20204;-74
2022/07/26 07:11:14;;;;;;;2.57;1.00;;;13.40;51.40;;;;;;5012094;28;20180;-75
2022/07/26 07:13:41;;;;;;;1.83;1.00;;;13.30;51.50;;;;;;5012765;28;20307;-79
2022/07/26 07:16:09;;;;;;;2.77;0.93;;;13.20;52.20;;;;;;5012782;28;20181;-75
2022/07/26 07:18:36;;;;;;;1.33;0.87;;;13.20;52.30;;;;;;5012860;28;20235;-73
2022/07/26 07:21:04;;;;;;;2.60;1.23;;;13.10;52.50;;;;;;5012323;28;20200;-74
2022/07/26 07:23:32;;;;;;;0.90;0.87;;;13.00;52.80;;;;;;5012503;28;20197;-72
2022/07/26 07:26:00;;;;;;;2.70;0.97;;;13.00;52.60;;;;;;5012253;28;20193;-74
2022/07/26 07:28:27;;;;;;;2.20;1.00;;;13.00;52.40;;;;;;5012547;28;20188;-74
2022/07/26 07:30:55;;;;;;;3.00;0.90;;;12.90;52.60;;;;;;5010607;28;20531;-76
2022/07/26 07:33:22;;;;;;;1.00;0.90;;;13.00;52.80;;;;;;4992851;28;20280;-75
2022/07/26 07:36:41;;;;;;;3.33;1.33;;;12.90;52.80;;;;;;4993163;28;20197;-73
2022/07/26 07:39:09;;;;;;;3.60;1.13;;;12.90;52.90;;;;;;4989719;28;20567;-73
2022/07/26 07:41:37;;;;;;;2.90;1.10;;;12.80;53.40;;;;;;4974519;28;20224;-79
2022/07/26 07:44:05;;;;;;;1.63;1.00;;;12.70;53.00;;;;;;4991523;28;20531;-74
2022/07/26 07:46:32;;;;;;;3.03;0.90;;;12.70;53.20;;;;;;4993052;28;20185;-78
2022/07/26 07:49:00;;;;;;;1.67;1.10;;;12.80;53.20;;;;;;4992395;28;20208;-78
2022/07/26 07:51:28;;;;;;;2.07;1.20;;;12.70;52.50;;;;;;4978776;28;20489;-74
2022/07/26 07:53:55;;;;;;;1.60;1.10;;;12.70;52.50;;;;;;4992866;28;20209;-81
2022/07/26 07:56:23;;;;;;;1.33;1.10;;;12.70;52.80;;;;;;4993038;28;20686;-82
2022/07/26 07:58:50;;;;;;;5.23;1.40;;;12.70;52.90;;;;;;4992769;28;20593;-75
2022/07/26 08:01:18;;;;;;;3.43;1.20;;;12.70;52.90;;;;;;4991332;28;20273;-74
2022/07/26 08:03:45;;;;;;;1.20;1.00;;;12.70;53.20;;;;;;4990902;28;20171;-82
2022/07/26 08:06:13;;;;;;;1.97;1.07;;;12.70;53.20;;;;;;4988302;28;20189;-82
2022/07/26 08:08:43;;;;;;;2.33;1.30;;;12.70;52.80;;;;;;4978795;28;20709;-79
2022/07/26 08:11:11;;;;;;;1.50;1.00;;;12.70;52.60;;;;;;4989453;28;20695;-76
2022/07/26 08:13:38;;;;;;;1.07;0.97;;;12.60;52.60;;;;;;4990475;28;20196;-78
2022/07/26 08:16:06;;;;;;;2.43;1.30;;;12.60;52.60;;;;;;4978973;28;20273;-83
2022/07/26 08:18:33;;;;;;;1.80;1.20;;;12.60;53.20;;;;;;4991713;28;20192;-79
2022/07/26 08:21:02;;;;;;;3.30;1.30;;;12.60;53.00;;;;;;4996475;28;20239;-76
2022/07/26 08:23:29;;;;;;;2.43;1.30;;;12.50;53.50;;;;;;4996463;28;20181;-73
2022/07/26 08:25:57;;;;;;;1.77;1.10;;;12.50;53.60;;;;;;4995977;28;20192;-75
2022/07/26 08:28:26;;;;;;;2.00;1.27;;;12.50;52.90;;;;;;4990218;28;20205;-74
2022/07/26 08:30:54;;;;;;;2.87;1.50;;;12.50;52.90;;;;;;4994696;28;20185;-79
2022/07/26 08:33:22;;;;;;;3.27;1.20;;;12.50;52.70;;;;;;4991905;28;20241;-76
2022/07/26 08:35:49;;;;;;;1.80;1.10;;;12.50;52.80;;;;;;4996031;28;20267;-76
2022/07/26 08:38:17;;;;;;;1.53;1.33;;;12.60;52.70;;;;;;4995160;28;20181;-77
2022/07/26 08:40:44;;;;;;;1.60;1.10;;;12.50;52.50;;;;;;4994948;28;20217;-81
2022/07/26 08:43:11;;;;;;;1.50;1.10;;;12.50;52.60;;;;;;4993086;28;20261;-87
2022/07/26 08:45:39;;;;;;;4.27;1.20;;;12.50;52.30;;;;;;4995646;28;20612;-75
2022/07/26 08:48:06;;;;;;;3.90;1.40;;;12.50;52.60;;;;;;4994127;28;20182;-76
2022/07/26 08:50:34;;;;;;;1.93;1.20;;;12.50;52.70;;;;;;4995792;28;20540;-84
2022/07/26 08:53:08;;;;;;;2.40;1.33;;;12.50;53.10;;;;;;4995592;28;20181;-80
2022/07/26 08:55:36;;;;;;;1.10;1.00;;;12.40;53.40;;;;;;4995862;28;20651;-79
2022/07/26 08:58:04;;;;;;;1.30;1.07;;;12.50;53.50;;;;;;4995118;28;20816;-77
2022/07/26 09:00:32;;;;;;;4.10;1.33;;;12.40;53.10;;;;;;4995308;28;20259;-76
2022/07/26 09:03:01;;;;;;;1.13;1.00;;;12.40;53.40;;;;;;4995260;28;20185;-79
2022/07/26 09:05:34;;;;;;;2.40;1.30;;;12.40;53.40;;;;;;4995535;28;20292;-77
2022/07/26 09:08:26;;;;;;;2.80;1.30;;;12.40;53.60;;;;;;4995598;28;20687;-80
2022/07/26 09:10:54;;;;;;;3.27;1.37;;;12.40;53.00;;;;;;4995306;28;20315;-73
2022/07/26 09:13:24;;;;;;;2.97;1.20;;;12.40;53.60;;;;;;4994314;28;21588;-80
2022/07/26 09:16:11;;;;;;;1.97;1.13;;;12.40;53.40;;;;;;4994528;28;20185;-76
2022/07/26 09:18:38;;;;;;;3.30;1.10;;;12.40;53.70;;;;;;4992459;28;20593;-76
2022/07/26 09:21:05;;;;;;;1.50;1.00;;;12.40;53.70;;;;;;4984285;28;20236;-79
2022/07/26 09:23:42;;;;;;;1.27;0.90;;;12.40;53.40;;;;;;4984834;28;20248;-76
2022/07/26 09:26:09;;;;;;;1.20;1.10;;;12.40;53.70;;;;;;4994200;28;20187;-77
2022/07/26 09:28:37;;;;;;;3.87;1.30;;;12.40;53.70;;;;;;4994597;28;20186;-75
2022/07/26 09:31:05;;;;;;;2.33;0.97;;;12.30;54.10;;;;;;4994119;28;20239;-76
2022/07/26 09:33:45;;;;;;;1.13;1.00;;;12.30;53.90;;;;;;4984063;28;20587;-77
2022/07/26 09:36:13;;;;;;;3.07;1.30;;;12.30;54.40;;;;;;4989744;28;20549;-76
2022/07/26 09:38:42;;;;;;;1.63;1.20;;;12.30;53.80;;;;;;4988334;28;20664;-78
2022/07/26 09:41:27;;;;;;;2.03;1.40;;;12.30;53.60;;;;;;4992815;28;20199;-76
2022/07/26 09:43:58;;;;;;;1.77;1.30;;;12.30;54.10;;;;;;4981739;28;20652;-78
2022/07/26 09:46:28;;;;;;;2.67;1.40;;;12.30;54.40;;;;;;4978219;28;20645;-77
2022/07/26 09:48:56;;;;;;;1.43;1.30;;;12.40;54.30;;;;;;4994819;28;20212;-77
2022/07/26 09:51:45;;;;;;;1.83;1.20;;;12.40;54.50;;;;;;4994664;28;20272;-75
2022/07/26 09:54:34;;;;;;;1.50;1.23;;;12.40;54.40;;;;;;4982027;28;20189;-73
2022/07/26 09:57:02;;;;;;;2.17;1.13;;;12.40;54.60;;;;;;4994861;28;20210;-76
2022/07/26 09:59:29;;;;;;;3.60;1.53;;;12.40;54.40;;;;;;4994493;28;20209;-71
2022/07/26 10:01:59;;;;;;;3.33;1.63;;;12.40;54.60;;;;;;4982521;28;20197;-73
2022/07/26 10:04:26;;;;;;;1.33;1.20;;;12.40;54.70;;;;;;5005614;28;20180;-76
2022/07/26 10:06:56;;;;;;;2.73;1.40;;;12.40;54.90;;;;;;4997097;28;20209;-74
2022/07/26 10:09:24;;;;;;;2.57;1.33;;;12.40;54.90;;;;;;4988715;28;20237;-75
2022/07/26 10:11:56;;;;;;;2.60;1.30;;;12.40;54.90;;;;;;4990230;28;20320;-73
2022/07/26 10:14:44;;;;;;;1.97;1.30;;;12.50;55.10;;;;;;4994536;28;20182;-72
2022/07/26 10:17:33;;;;;;;2.43;1.53;;;12.50;55.10;;;;;;4983955;28;20273;-74
2022/07/26 10:20:05;;;;;;;2.07;1.10;;;12.40;55.20;;;;;;4987931;28;20675;-74
2022/07/26 10:22:41;;;;;;;3.20;1.10;;;12.40;55.40;;;;;;4994452;28;20530;-76
2022/07/26 10:25:20;;;;;;;1.03;0.93;;;12.40;55.30;;;;;;4993822;28;20208;-75
2022/07/26 10:27:53;;;;;;;3.30;1.20;;;12.40;55.10;;;;;;4981449;28;20658;-74
2022/07/26 10:30:25;;;;;;;3.80;1.20;;;12.40;55.70;;;;;;4981837;28;20182;-85
2022/07/26 10:33:01;;;;;;;1.93;1.10;;;12.40;55.90;;;;;;4994095;28;20222;-76
2022/07/26 10:35:43;;;;;;;1.23;1.10;;;12.30;55.80;;;;;;4977840;28;20193;-80
2022/07/26 10:38:15;;;;;;;3.00;1.47;;;12.30;55.50;;;;;;4992639;28;20301;-77
2022/07/26 10:41:00;;;;;;;2.67;1.30;;;12.30;55.90;;;;;;4991892;28;20680;-80
2022/07/26 10:43:28;;;;;;;2.07;1.30;;;12.30;56.10;;;;;;4993532;28;20186;-76
2022/07/26 10:46:21;;;;;;;2.27;1.10;;;12.40;55.50;;;;;;4989944;28;20215;-79
2022/07/26 10:48:58;;;;;;;1.80;1.10;;;12.40;55.90;;;;;;4993626;28;20640;-76
2022/07/26 10:51:38;;;;;;;2.37;1.30;;;12.30;56.30;;;;;;4993368;28;20645;-77
2022/07/26 10:54:08;;;;;;;2.30;1.13;;;12.40;56.50;;;;;;4992769;28;20679;-82
2022/07/26 10:56:35;;;;;;;2.33;1.37;;;12.30;56.40;;;;;;4993853;28;20187;-76
2022/07/26 10:59:04;;;;;;;1.03;1.00;;;12.30;56.30;;;;;;4993456;28;20304;-79
2022/07/26 11:01:37;;;;;;;1.00;0.90;;;12.30;56.30;;;;;;4993583;28;20208;-81
2022/07/26 11:04:16;;;;;;;1.10;1.00;;;12.30;56.80;;;;;;4993477;28;20656;-76
2022/07/26 11:06:44;;;;;;;1.83;1.10;;;12.30;56.70;;;;;;4993506;28;20264;-80
2022/07/26 11:09:12;;;;;;;1.20;1.10;;;12.30;56.80;;;;;;4992715;28;20732;-77
2022/07/26 11:11:40;;;;;;;1.57;1.00;;;12.20;56.90;;;;;;4993430;28;20181;-77
2022/07/26 11:14:13;;;;;;;1.53;1.20;;;12.20;56.90;;;;;;4981126;28;20178;-79
2022/07/26 11:16:45;;;;;;;1.53;1.10;;;12.20;57.10;;;;;;4993580;28;20177;-81
2022/07/26 11:19:20;;;;;;;1.50;1.00;;;12.20;57.50;;;;;;4983142;28;20197;-80
2022/07/26 11:21:55;;;;;;;3.20;1.13;;;12.20;57.30;;;;;;4993264;28;20189;-80
2022/07/26 11:24:22;;;;;;;1.20;1.10;;;12.20;57.50;;;;;;4992684;28;20181;-78
2022/07/26 11:26:50;;;;;;;1.73;1.10;;;12.10;57.70;;;;;;4963455;28;20190;-76
2022/07/26 11:29:30;;;;;;;1.17;1.00;;;12.10;57.70;;;;;;4992241;28;20243;-74
2022/07/26 11:31:58;;;;;;;3.60;1.03;;;12.00;58.00;;;;;;4993052;28;20225;-79
2022/07/26 11:34:34;;;;;;;2.50;1.20;;;12.00;57.90;;;;;;4993067;28;20647;-73
2022/07/26 11:37:05;;;;;;;1.60;1.20;;;12.00;58.30;;;;;;4992499;28;20545;-71
2022/07/26 11:39:34;;;;;;;3.43;1.20;;;12.00;58.30;;;;;;4992708;28;20216;-76
2022/07/26 11:42:03;;;;;;;3.23;1.40;;;11.90;58.30;;;;;;4993035;28;20707;-75
2022/07/26 11:44:32;;;;;;;1.50;1.10;;;11.90;58.70;;;;;;4992905;28;20231;-75
2022/07/26 11:47:00;;;;;;;1.10;1.00;;;11.80;58.70;;;;;;4978413;28;20521;-76
2022/07/26 11:49:29;;;;;;;2.80;1.23;;;11.80;58.90;;;;;;4992984;28;20656;-72
2022/07/26 11:51:59;;;;;;;1.27;1.00;;;11.80;58.90;;;;;;4967936;28;20510;-73
2022/07/26 11:54:30;;;;;;;1.23;1.17;;;11.70;59.50;;;;;;4997275;28;20184;-76
2022/07/26 11:57:04;;;;;;;1.70;1.20;;;11.70;59.30;;;;;;4997223;28;20647;-76
2022/07/26 11:59:34;;;;;;;1.93;1.20;;;11.70;59.50;;;;;;4996880;28;20219;-75
2022/07/26 12:02:04;;;;;;;1.97;1.27;;;11.70;59.30;;;;;;4992699;28;20209;-74
2022/07/26 12:04:39;;;;;;;5.70;1.43;;;11.60;59.10;;;;;;4983890;28;20197;-73
2022/07/26 12:07:20;;;;;;;3.20;1.60;;;11.60;59.20;;;;;;4987039;28;20188;-74
2022/07/26 12:09:52;;;;;;;3.30;1.40;;;11.60;59.00;;;;;;4984641;28;20193;-76
2022/07/26 12:12:28;;;;;;;2.60;1.27;;;11.60;59.10;;;;;;4996550;28;20632;-73
2022/07/26 12:14:56;;;;;;;2.13;1.20;;;11.50;58.80;;;;;;4995816;28;20193;-76
2022/07/26 12:17:24;;;;;;;2.50;1.20;;;11.70;58.30;;;;;;4995822;28;20232;-73
2022/07/26 12:19:51;;;;;;;3.13;1.40;;;11.60;58.20;;;;;;4991570;28;20232;-72
2022/07/26 12:22:20;;;;;;;1.63;1.30;;;11.60;58.30;;;;;;4993822;28;20188;-73
2022/07/26 12:24:56;;;;;;;1.93;1.20;;;11.70;57.70;;;;;;4996125;28;20645;-72
2022/07/26 12:27:33;;;;;;;2.67;1.20;;;11.70;57.70;;;;;;4996854;28;20173;-76
2022/07/26 12:30:03;;;;;;;2.47;1.40;;;11.70;57.80;;;;;;4988766;28;20572;-74
2022/07/26 12:32:36;;;;;;;3.07;1.33;;;11.70;58.00;;;;;;4994149;28;20265;-75
2022/07/26 12:35:07;;;;;;;3.27;1.30;;;11.60;58.20;;;;;;4992759;28;20541;-76
2022/07/26 12:37:38;;;;;;;4.27;1.47;;;11.60;58.00;;;;;;4995788;28;20215;-73
2022/07/26 12:40:15;;;;;;;3.13;1.40;;;11.60;58.10;;;;;;4994073;28;20312;-78
2022/07/26 12:42:54;;;;;;;2.53;1.20;;;11.50;58.30;;;;;;4987450;28;20548;-77
2022/07/26 12:45:35;;;;;;;2.20;1.30;;;11.50;58.30;;;;;;4994428;28;20596;-78
2022/07/26 12:48:09;;;;;;;1.43;1.10;;;11.50;58.40;;;;;;4990411;28;20196;-75
2022/07/26 12:50:37;;;;;;;1.40;1.30;;;11.50;58.30;;;;;;4996641;28;20180;-76
2022/07/26 12:53:07;;;;;;;1.63;1.03;;;11.50;58.60;;;;;;4989020;28;20185;-79
2022/07/26 12:55:36;;;;;;;2.30;1.20;;;11.40;58.90;;;;;;4995848;28;20276;-77
2022/07/26 12:58:04;;;;;;;2.87;1.20;;;11.40;58.70;;;;;;4986885;28;20189;-76
2022/07/26 13:00:31;;;;;;;1.93;1.10;;;11.40;58.90;;;;;;4994718;28;20564;-72